createdAt,value
2023-04-26T00:00:35.777Z,58.31
2023-04-26T00:02:07.282Z,58.23
2023-04-26T00:03:40.770Z,58.31
2023-04-26T00:05:12.737Z,58.19
2023-04-26T00:06:44.383Z,58.23
2023-04-26T00:08:16.263Z,58.41
2023-04-26T00:09:48.455Z,58.84
2023-04-26T00:11:20.085Z,58.99
2023-04-26T00:12:51.848Z,58.51
2023-04-26T00:14:23.321Z,58.55
2023-04-26T00:15:54.838Z,58.30
2023-04-26T00:17:26.415Z,58.84
2023-04-26T00:18:58.024Z,58.77
2023-04-26T00:20:30.107Z,58.55
2023-04-26T00:22:02.291Z,59.01
2023-04-26T00:23:34.256Z,58.84
2023-04-26T00:25:06.038Z,58.32
2023-04-26T00:26:37.562Z,58.93
2023-04-26T00:28:09.200Z,58.23
2023-04-26T00:29:40.799Z,58.55
2023-04-26T00:31:18.626Z,58.23
2023-04-26T00:32:52.872Z,57.93
2023-04-26T00:34:24.511Z,58.01
2023-04-26T00:35:56.293Z,58.19
2023-04-26T00:37:27.817Z,58.32
2023-04-26T00:38:59.303Z,57.54
2023-04-26T00:40:31.064Z,58.41
2023-04-26T00:42:02.524Z,57.94
2023-04-26T00:43:34.174Z,58.15
2023-04-26T00:45:06.280Z,57.82
2023-04-26T00:46:38.220Z,58.34
2023-04-26T00:48:09.797Z,58.43
2023-04-26T00:49:41.737Z,58.57
2023-04-26T00:51:13.539Z,58.58
2023-04-26T00:52:45.417Z,58.74
2023-04-26T00:54:17.008Z,58.74
2023-04-26T00:55:49.275Z,58.77
2023-04-26T00:57:21.706Z,58.45
2023-04-26T00:58:53.749Z,58.85
2023-04-26T01:00:26.059Z,58.55
2023-04-26T01:01:57.722Z,58.57
2023-04-26T01:03:30.221Z,58.97
2023-04-26T01:05:01.912Z,58.99
2023-04-26T01:06:34.159Z,58.42
2023-04-26T01:08:05.828Z,58.65
2023-04-26T01:09:37.292Z,58.78
2023-04-26T01:11:09.810Z,58.60
2023-04-26T01:12:41.610Z,58.56
2023-04-26T01:14:13.140Z,58.31
2023-04-26T01:15:47.953Z,58.73
2023-04-26T01:17:20.235Z,58.35
2023-04-26T01:18:53.161Z,57.98
2023-04-26T01:20:26.146Z,57.81
2023-04-26T01:21:57.572Z,58.06
2023-04-26T01:23:29.183Z,58.48
2023-04-26T01:25:01.461Z,58.42
2023-04-26T01:26:33.041Z,58.42
2023-04-26T01:28:04.642Z,58.47
2023-04-26T01:29:36.184Z,58.48
2023-04-26T01:31:07.739Z,58.47
2023-04-26T01:32:39.294Z,58.86
2023-04-26T01:34:11.044Z,58.62
2023-04-26T01:35:43.270Z,58.47
2023-04-26T01:37:14.797Z,58.60
2023-04-26T01:38:46.333Z,58.62
2023-04-26T01:40:17.877Z,58.57
2023-04-26T01:41:49.948Z,58.04
2023-04-26T01:43:23.059Z,58.20
2023-04-26T01:44:54.656Z,58.57
2023-04-26T01:46:26.467Z,58.81
2023-04-26T01:47:58.458Z,59.06
2023-04-26T01:49:29.936Z,58.74
2023-04-26T01:51:01.453Z,58.59
2023-04-26T01:52:33.000Z,59.04
2023-04-26T01:54:04.516Z,58.84
2023-04-26T01:55:36.049Z,58.54
2023-04-26T01:57:07.587Z,58.87
2023-04-26T01:58:39.070Z,58.77
2023-04-26T02:00:11.568Z,58.69
2023-04-26T02:01:43.713Z,58.71
2023-04-26T02:03:15.667Z,58.65
2023-04-26T02:04:47.376Z,58.89
2023-04-26T02:06:18.878Z,58.52
2023-04-26T02:07:51.287Z,58.92
2023-04-26T02:09:22.743Z,58.99
2023-04-26T02:10:54.474Z,59.07
2023-04-26T02:12:26.047Z,59.02
2023-04-26T02:13:57.665Z,58.85
2023-04-26T02:15:29.496Z,58.31
2023-04-26T02:17:01.425Z,58.71
2023-04-26T02:18:33.186Z,59.20
2023-04-26T02:20:04.814Z,58.94
2023-04-26T02:21:55.229Z,59.11
2023-04-26T02:23:26.871Z,58.98
2023-04-26T02:24:58.656Z,59.15
2023-04-26T02:26:32.651Z,58.82
2023-04-26T02:28:04.586Z,59.38
2023-04-26T02:29:44.169Z,59.44
2023-04-26T02:31:16.402Z,59.42
2023-04-26T02:32:47.968Z,59.63
2023-04-26T02:34:19.522Z,59.59
2023-04-26T02:35:51.001Z,59.68
2023-04-26T02:37:22.526Z,59.17
2023-04-26T02:38:54.170Z,59.43
2023-04-26T02:40:25.904Z,59.38
2023-04-26T02:41:57.921Z,59.35
2023-04-26T02:43:29.787Z,59.26
2023-04-26T02:45:01.334Z,59.14
2023-04-26T02:46:33.029Z,59.38
2023-04-26T02:48:04.679Z,58.68
2023-04-26T02:49:36.158Z,59.22
2023-04-26T02:51:07.817Z,58.83
2023-04-26T02:52:39.381Z,59.06
2023-04-26T02:54:10.952Z,59.04
2023-04-26T02:55:42.470Z,58.84
2023-04-26T02:57:13.984Z,59.09
2023-04-26T02:58:45.552Z,58.74
2023-04-26T03:00:17.068Z,59.19
2023-04-26T03:01:48.625Z,59.15
2023-04-26T03:03:20.596Z,58.96
2023-04-26T03:04:52.319Z,59.23
2023-04-26T03:06:23.813Z,59.12
2023-04-26T03:07:55.383Z,58.77
2023-04-26T03:09:26.985Z,58.90
2023-04-26T03:10:58.465Z,58.95
2023-04-26T03:12:29.979Z,58.79
2023-04-26T03:14:01.447Z,58.58
2023-04-26T03:15:33.034Z,58.55
2023-04-26T03:17:04.524Z,58.49
2023-04-26T03:18:36.066Z,58.40
2023-04-26T03:20:07.863Z,58.58
2023-04-26T03:21:39.404Z,58.55
2023-04-26T03:23:11.011Z,58.84
2023-04-26T03:24:46.881Z,59.28
2023-04-26T03:26:18.487Z,59.45
2023-04-26T03:27:50.128Z,59.47
2023-04-26T03:29:21.737Z,59.37
2023-04-26T03:30:53.346Z,59.84
2023-04-26T03:32:24.988Z,59.73
2023-04-26T03:33:56.535Z,59.49
2023-04-26T03:35:29.409Z,59.19
2023-04-26T03:37:01.652Z,58.91
2023-04-26T03:38:33.177Z,58.88
2023-04-26T03:40:06.308Z,58.70
2023-04-26T03:41:39.692Z,59.28
2023-04-26T03:43:11.402Z,59.01
2023-04-26T03:44:43.001Z,58.84
2023-04-26T03:46:14.612Z,58.78
2023-04-26T03:47:46.686Z,58.97
2023-04-26T03:49:18.225Z,58.88
2023-04-26T03:50:50.296Z,58.82
2023-04-26T03:52:21.828Z,58.74
2023-04-26T03:53:53.311Z,59.21
2023-04-26T03:55:24.742Z,59.28
2023-04-26T03:56:56.360Z,59.64
2023-04-26T03:58:28.212Z,59.76
2023-04-26T03:59:59.884Z,59.83
2023-04-26T04:01:31.822Z,59.51
2023-04-26T04:03:03.602Z,59.32
2023-04-26T04:04:35.614Z,59.90
2023-04-26T04:06:08.049Z,59.65
2023-04-26T04:07:39.609Z,60.40
2023-04-26T04:09:12.142Z,60.37
2023-04-26T04:10:44.448Z,60.22
2023-04-26T04:12:15.997Z,60.27
2023-04-26T04:13:47.487Z,59.87
2023-04-26T04:15:19.428Z,60.29
2023-04-26T04:16:51.070Z,59.81
2023-04-26T04:18:22.897Z,59.80
2023-04-26T04:19:54.430Z,59.56
2023-04-26T04:21:25.962Z,59.85
2023-04-26T04:22:58.858Z,60.06
2023-04-26T04:24:31.902Z,60.03
2023-04-26T04:26:05.878Z,59.62
2023-04-26T04:27:38.120Z,59.46
2023-04-26T04:29:09.661Z,59.27
2023-04-26T04:30:42.518Z,59.90
2023-04-26T04:32:15.153Z,59.42
2023-04-26T04:33:46.595Z,59.82
2023-04-26T04:35:18.585Z,60.12
2023-04-26T04:36:50.861Z,59.97
2023-04-26T04:38:23.402Z,59.94
2023-04-26T04:39:55.642Z,59.77
2023-04-26T04:41:27.942Z,59.96
2023-04-26T04:43:01.260Z,59.80
2023-04-26T04:44:34.207Z,60.35
2023-04-26T04:46:06.245Z,60.27
2023-04-26T04:47:40.675Z,60.20
2023-04-26T04:49:12.604Z,60.24
2023-04-26T04:50:44.139Z,60.25
2023-04-26T04:52:18.630Z,59.90
2023-04-26T04:53:51.288Z,60.09
2023-04-26T04:55:23.203Z,60.06
2023-04-26T04:56:54.686Z,59.63
2023-04-26T04:58:26.223Z,60.40
2023-04-26T04:59:58.418Z,59.89
2023-04-26T05:01:31.660Z,60.45
2023-04-26T05:03:03.711Z,60.39
2023-04-26T05:04:35.561Z,60.46
2023-04-26T05:06:08.230Z,60.23
2023-04-26T05:07:39.886Z,60.20
2023-04-26T05:09:11.907Z,59.86
2023-04-26T05:10:43.505Z,59.80
2023-04-26T05:12:15.092Z,59.68
2023-04-26T05:13:46.753Z,59.88
2023-04-26T05:15:18.346Z,59.72
2023-04-26T05:16:50.282Z,59.95
2023-04-26T05:18:21.890Z,59.72
2023-04-26T05:19:53.364Z,59.83
2023-04-26T05:21:24.936Z,59.99
2023-04-26T05:22:56.588Z,59.68
2023-04-26T05:24:30.192Z,59.59
2023-04-26T05:26:02.612Z,59.63
2023-04-26T05:27:34.158Z,59.65
2023-04-26T05:29:05.748Z,60.15
2023-04-26T05:30:37.303Z,59.38
2023-04-26T05:32:09.059Z,59.82
2023-04-26T05:33:40.724Z,59.81
2023-04-26T05:35:12.239Z,60.18
2023-04-26T05:36:43.766Z,60.16
2023-04-26T05:38:15.293Z,60.10
2023-04-26T05:39:47.180Z,59.40
2023-04-26T05:41:18.749Z,60.00
2023-04-26T05:42:50.894Z,59.67
2023-04-26T05:44:22.460Z,59.95
2023-04-26T05:45:54.460Z,60.16
2023-04-26T05:47:26.577Z,59.65
2023-04-26T05:48:58.634Z,59.62
2023-04-26T05:50:30.387Z,59.90
2023-04-26T05:52:03.805Z,60.29
2023-04-26T05:53:35.377Z,59.59
2023-04-26T05:55:07.096Z,59.84
2023-04-26T05:56:38.638Z,59.96
2023-04-26T05:58:10.222Z,59.02
2023-04-26T05:59:41.659Z,59.06
2023-04-26T06:01:13.969Z,59.51
2023-04-26T06:02:46.620Z,59.89
2023-04-26T06:04:18.409Z,60.12
2023-04-26T06:05:50.020Z,59.95
2023-04-26T06:07:21.546Z,59.53
2023-04-26T06:08:53.154Z,59.97
2023-04-26T06:10:24.789Z,59.95
2023-04-26T06:11:56.459Z,60.17
2023-04-26T06:13:28.090Z,59.72
2023-04-26T06:14:59.537Z,59.63
2023-04-26T06:16:31.169Z,59.32
2023-04-26T06:18:02.733Z,60.57
2023-04-26T06:19:34.268Z,60.00
2023-04-26T06:21:06.388Z,59.84
2023-04-26T06:22:38.278Z,59.77
2023-04-26T06:24:09.867Z,59.96
2023-04-26T06:25:44.866Z,59.92
2023-04-26T06:27:16.456Z,60.04
2023-04-26T06:28:47.972Z,59.93
2023-04-26T06:30:19.534Z,59.58
2023-04-26T06:31:51.164Z,59.25
2023-04-26T06:33:22.679Z,59.70
2023-04-26T06:34:55.015Z,59.65
2023-04-26T06:36:28.273Z,59.55
2023-04-26T06:37:59.773Z,59.70
2023-04-26T06:39:31.427Z,59.36
2023-04-26T06:41:02.881Z,59.29
2023-04-26T06:42:34.417Z,59.12
2023-04-26T06:44:06.218Z,59.43
2023-04-26T06:45:37.694Z,59.28
2023-04-26T06:47:09.728Z,58.99
2023-04-26T06:48:41.672Z,59.04
2023-04-26T06:50:13.300Z,59.21
2023-04-26T06:51:44.782Z,59.26
2023-04-26T06:53:16.343Z,59.70
2023-04-26T06:54:56.554Z,58.92
2023-04-26T06:56:29.306Z,59.43
2023-04-26T06:58:01.525Z,59.26
2023-04-26T06:59:33.096Z,59.10
2023-04-26T07:01:06.547Z,58.97
2023-04-26T07:02:38.313Z,59.05
2023-04-26T07:04:13.782Z,59.17
2023-04-26T07:05:45.386Z,58.89
2023-04-26T07:07:17.360Z,59.28
2023-04-26T07:08:48.892Z,59.19
2023-04-26T07:10:21.262Z,59.23
2023-04-26T07:11:52.851Z,59.06
2023-04-26T07:13:24.405Z,58.94
2023-04-26T07:14:56.340Z,59.38
2023-04-26T07:16:28.155Z,59.50
2023-04-26T07:17:59.729Z,59.49
2023-04-26T07:19:31.757Z,59.54
2023-04-26T07:21:03.581Z,59.83
2023-04-26T07:22:35.376Z,59.69
2023-04-26T07:24:07.223Z,59.61
2023-04-26T07:25:39.158Z,59.54
2023-04-26T07:27:11.310Z,59.82
2023-04-26T07:28:43.117Z,59.76
2023-04-26T07:30:15.276Z,60.18
2023-04-26T07:31:46.834Z,60.16
2023-04-26T07:33:18.466Z,59.93
2023-04-26T07:34:50.503Z,60.33
2023-04-26T07:36:23.826Z,59.99
2023-04-26T07:37:56.806Z,59.74
2023-04-26T07:39:28.380Z,59.72
2023-04-26T07:41:01.445Z,60.04
2023-04-26T07:42:32.963Z,59.71
2023-04-26T07:44:04.663Z,59.76
2023-04-26T07:45:36.580Z,59.93
2023-04-26T07:47:15.978Z,59.98
2023-04-26T07:48:47.578Z,59.50
2023-04-26T07:50:19.397Z,59.53
2023-04-26T07:51:52.530Z,59.32
2023-04-26T07:53:24.136Z,59.30
2023-04-26T07:54:55.804Z,59.48
2023-04-26T07:56:27.673Z,59.22
2023-04-26T07:57:59.331Z,59.00
2023-04-26T07:59:30.880Z,59.26
2023-04-26T08:01:02.395Z,58.79
2023-04-26T08:02:44.585Z,58.90
2023-04-26T08:04:17.968Z,58.61
2023-04-26T08:05:50.265Z,58.49
2023-04-26T08:07:22.121Z,58.27
2023-04-26T08:08:54.115Z,58.21
2023-04-26T08:10:26.565Z,58.39
2023-04-26T08:11:58.482Z,58.41
2023-04-26T08:13:30.203Z,58.44
2023-04-26T08:15:02.444Z,58.13
2023-04-26T08:16:34.394Z,58.14
2023-04-26T08:18:06.901Z,57.98
2023-04-26T08:19:38.683Z,57.90
2023-04-26T08:21:11.039Z,57.64
2023-04-26T08:22:42.585Z,57.89
2023-04-26T08:24:14.458Z,58.01
2023-04-26T08:25:47.758Z,57.45
2023-04-26T08:27:20.187Z,57.38
2023-04-26T08:28:52.027Z,57.08
2023-04-26T08:30:24.354Z,57.16
2023-04-26T08:31:56.742Z,56.98
2023-04-26T08:33:28.919Z,57.01
2023-04-26T08:35:00.662Z,56.59
2023-04-26T08:36:36.121Z,56.73
2023-04-26T08:38:07.867Z,56.66
2023-04-26T08:39:39.438Z,56.28
2023-04-26T08:41:12.255Z,56.54
2023-04-26T08:42:46.832Z,56.49
2023-04-26T08:44:19.624Z,56.43
2023-04-26T08:45:51.405Z,56.35
2023-04-26T08:47:25.084Z,56.05
2023-04-26T08:49:07.430Z,55.94
2023-04-26T08:50:39.022Z,56.09
2023-04-26T08:52:15.110Z,56.02
2023-04-26T08:53:46.780Z,55.69
2023-04-26T08:55:18.874Z,55.56
2023-04-26T08:56:50.640Z,55.24
2023-04-26T08:58:22.106Z,55.25
2023-04-26T08:59:53.689Z,55.00
2023-04-26T09:01:26.601Z,55.17
2023-04-26T09:02:58.205Z,54.77
2023-04-26T09:04:30.227Z,54.58
2023-04-26T09:06:04.329Z,55.07
2023-04-26T09:07:40.329Z,55.06
2023-04-26T09:09:12.442Z,54.39
2023-04-26T09:10:44.455Z,54.42
2023-04-26T09:12:17.072Z,54.24
2023-04-26T09:13:48.834Z,53.89
2023-04-26T09:15:23.737Z,53.85
2023-04-26T09:16:55.301Z,53.68
2023-04-26T09:18:26.986Z,53.75
2023-04-26T09:20:01.775Z,53.80
2023-04-26T09:21:33.328Z,53.63
2023-04-26T09:23:06.208Z,53.21
2023-04-26T09:24:48.589Z,52.87
2023-04-26T09:26:21.241Z,52.44
2023-04-26T09:27:52.997Z,52.50
2023-04-26T09:29:24.485Z,52.93
2023-04-26T09:30:56.350Z,52.57
2023-04-26T09:32:29.354Z,52.47
2023-04-26T09:34:00.968Z,52.21
2023-04-26T09:35:42.221Z,52.74
2023-04-26T09:37:16.866Z,52.28
2023-04-26T09:38:49.390Z,52.18
2023-04-26T09:40:22.179Z,52.06
2023-04-26T09:41:53.890Z,52.04
2023-04-26T09:43:25.657Z,52.03
2023-04-26T09:45:06.457Z,51.20
2023-04-26T09:46:38.536Z,51.40
2023-04-26T09:48:36.455Z,51.00
2023-04-26T09:50:08.391Z,51.52
2023-04-26T09:51:40.232Z,51.25
2023-04-26T09:53:11.946Z,51.14
2023-04-26T09:54:43.874Z,50.83
2023-04-26T09:56:16.536Z,50.61
2023-04-26T09:57:48.121Z,50.81
2023-04-26T09:59:20.000Z,50.83
2023-04-26T10:00:51.721Z,50.90
2023-04-26T10:02:24.098Z,50.97
2023-04-26T10:03:56.371Z,50.86
2023-04-26T10:05:28.266Z,50.70
2023-04-26T10:06:59.862Z,50.69
2023-04-26T10:08:31.702Z,50.47
2023-04-26T10:10:05.491Z,50.45
2023-04-26T10:11:39.364Z,50.42
2023-04-26T10:13:12.697Z,50.36
2023-04-26T10:14:45.041Z,50.45
2023-04-26T10:16:17.186Z,50.31
2023-04-26T10:17:50.811Z,50.26
2023-04-26T10:19:23.884Z,50.16
2023-04-26T10:20:56.288Z,49.99
2023-04-26T10:22:29.049Z,49.84
2023-04-26T10:24:00.564Z,49.74
2023-04-26T10:25:38.674Z,49.63
2023-04-26T10:27:10.722Z,49.39
2023-04-26T10:28:45.614Z,49.50
2023-04-26T10:30:18.384Z,49.30
2023-04-26T10:32:02.999Z,49.33
2023-04-26T10:33:35.228Z,49.04
2023-04-26T10:35:13.241Z,48.88
2023-04-26T10:37:03.227Z,48.76
2023-04-26T10:38:38.705Z,48.84
2023-04-26T10:40:25.835Z,48.64
2023-04-26T10:42:18.868Z,48.51
2023-04-26T10:43:51.338Z,48.51
2023-04-26T10:45:27.552Z,48.49
2023-04-26T10:46:59.158Z,48.29
2023-04-26T10:48:33.788Z,48.08
2023-04-26T10:50:09.941Z,47.79
2023-04-26T10:51:42.206Z,47.98
2023-04-26T10:53:14.036Z,47.94
2023-04-26T10:54:49.643Z,48.01
2023-04-26T10:56:24.932Z,47.99
2023-04-26T10:57:57.749Z,47.85
2023-04-26T10:59:40.241Z,47.68
2023-04-26T11:01:21.883Z,47.68
2023-04-26T11:02:54.805Z,47.65
2023-04-26T11:04:27.075Z,47.62
2023-04-26T11:05:58.763Z,47.02
2023-04-26T11:07:37.919Z,46.92
2023-04-26T11:09:29.408Z,46.87
2023-04-26T11:11:11.193Z,46.93
2023-04-26T11:12:43.297Z,46.60
2023-04-26T11:14:15.250Z,46.76
2023-04-26T11:15:47.062Z,46.76
2023-04-26T11:17:18.796Z,46.57
2023-04-26T11:18:50.610Z,46.31
2023-04-26T11:20:22.736Z,46.12
2023-04-26T11:21:54.618Z,46.32
2023-04-26T11:23:29.910Z,46.09
2023-04-26T11:25:01.473Z,46.16
2023-04-26T11:26:34.342Z,46.12
2023-04-26T11:28:05.817Z,45.98
2023-04-26T11:29:37.710Z,45.95
2023-04-26T11:31:09.617Z,45.81
2023-04-26T11:32:41.623Z,45.60
2023-04-26T11:34:14.296Z,45.50
2023-04-26T11:35:46.573Z,45.24
2023-04-26T11:37:18.189Z,45.27
2023-04-26T11:38:49.954Z,45.12
2023-04-26T11:40:22.299Z,45.17
2023-04-26T11:42:07.014Z,45.21
2023-04-26T11:43:39.487Z,45.21
2023-04-26T11:45:11.532Z,45.29
2023-04-26T11:46:43.229Z,45.27
2023-04-26T11:48:15.326Z,45.22
2023-04-26T11:49:48.147Z,45.06
2023-04-26T11:51:19.718Z,45.20
2023-04-26T11:52:51.575Z,45.09
2023-04-26T11:56:04.380Z,44.93
2023-04-26T11:57:36.321Z,44.60
2023-04-26T11:59:08.434Z,44.52
2023-04-26T12:00:58.858Z,44.53
2023-04-26T12:02:30.672Z,44.57
2023-04-26T12:04:02.708Z,44.46
2023-04-26T12:05:34.688Z,44.69
2023-04-26T12:07:07.485Z,44.55
2023-04-26T12:08:39.519Z,44.83
2023-04-26T12:10:14.303Z,44.97
2023-04-26T12:11:50.359Z,44.73
2023-04-26T12:13:22.107Z,44.91
2023-04-26T12:14:53.766Z,44.53
2023-04-26T12:16:27.144Z,44.56
2023-04-26T12:17:59.012Z,44.62
2023-04-26T12:19:33.893Z,44.67
2023-04-26T12:21:06.536Z,44.74
2023-04-26T12:22:38.266Z,44.40
2023-04-26T12:24:25.468Z,44.40
2023-04-26T12:25:57.438Z,44.51
2023-04-26T12:27:29.039Z,44.73
2023-04-26T12:29:00.718Z,44.69
2023-04-26T12:30:32.301Z,44.51
2023-04-26T12:32:04.491Z,44.85
2023-04-26T12:33:36.801Z,44.48
2023-04-26T12:35:09.045Z,44.45
2023-04-26T12:36:42.343Z,44.56
2023-04-26T12:38:15.774Z,44.43
2023-04-26T12:39:48.385Z,43.95
2023-04-26T12:41:19.891Z,43.99
2023-04-26T12:42:52.296Z,44.23
2023-04-26T12:44:24.008Z,44.32
2023-04-26T12:45:56.859Z,44.41
2023-04-26T12:47:28.477Z,44.47
2023-04-26T12:49:00.063Z,43.97
2023-04-26T12:50:31.756Z,43.96
2023-04-26T12:52:03.746Z,44.28
2023-04-26T12:53:35.362Z,44.05
2023-04-26T12:55:07.841Z,43.76
2023-04-26T12:56:44.043Z,43.81
2023-04-26T12:58:16.670Z,43.98
2023-04-26T12:59:48.250Z,44.17
2023-04-26T13:01:19.875Z,43.82
2023-04-26T13:02:52.307Z,44.03
2023-04-26T13:04:24.231Z,43.93
2023-04-26T13:05:56.141Z,44.12
2023-04-26T13:07:27.884Z,44.24
2023-04-26T13:08:59.742Z,43.81
2023-04-26T13:10:32.992Z,43.89
2023-04-26T13:12:04.695Z,43.84
2023-04-26T13:13:43.605Z,43.70
2023-04-26T13:15:17.722Z,43.98
2023-04-26T13:16:50.330Z,44.12
2023-04-26T13:18:22.003Z,44.08
2023-04-26T13:19:53.564Z,43.97
2023-04-26T13:21:25.407Z,44.17
2023-04-26T13:22:57.658Z,44.04
2023-04-26T13:24:29.228Z,43.96
2023-04-26T13:26:00.755Z,44.08
2023-04-26T13:27:32.457Z,44.25
2023-04-26T13:29:05.055Z,44.28
2023-04-26T13:30:36.747Z,44.17
2023-04-26T13:32:08.692Z,43.89
2023-04-26T13:33:40.495Z,43.90
2023-04-26T13:35:12.646Z,43.87
2023-04-26T13:36:44.450Z,44.11
2023-04-26T13:38:17.173Z,44.06
2023-04-26T13:39:49.376Z,44.32
2023-04-26T13:41:22.557Z,44.22
2023-04-26T13:42:54.612Z,44.28
2023-04-26T13:44:26.782Z,44.27
2023-04-26T13:45:58.614Z,44.13
2023-04-26T13:47:30.612Z,44.31
2023-04-26T13:49:02.166Z,44.39
2023-04-26T13:50:35.041Z,44.33
2023-04-26T13:52:06.709Z,43.96
2023-04-26T13:53:38.549Z,44.11
2023-04-26T13:55:12.481Z,44.14
2023-04-26T13:56:44.276Z,44.48
2023-04-26T13:58:16.409Z,44.63
2023-04-26T13:59:48.397Z,44.52
2023-04-26T14:01:19.965Z,44.48
2023-04-26T14:02:51.681Z,44.67
2023-04-26T14:04:23.597Z,44.51
2023-04-26T14:05:55.287Z,44.64
2023-04-26T14:07:27.202Z,44.65
2023-04-26T14:08:58.843Z,44.41
2023-04-26T14:10:30.401Z,44.64
2023-04-26T14:12:08.572Z,44.46
2023-04-26T14:13:41.334Z,44.64
2023-04-26T14:15:13.372Z,44.61
2023-04-26T14:16:45.279Z,44.39
2023-04-26T14:18:17.417Z,44.75
2023-04-26T14:19:49.244Z,44.97
2023-04-26T14:21:21.033Z,44.81
2023-04-26T14:22:53.004Z,44.86
2023-04-26T14:24:25.566Z,44.68
2023-04-26T14:25:57.309Z,44.75
2023-04-26T14:27:28.797Z,44.50
2023-04-26T14:29:00.761Z,44.73
2023-04-26T14:30:32.327Z,44.73
2023-04-26T14:32:04.183Z,44.88
2023-04-26T14:33:35.965Z,45.02
2023-04-26T14:35:08.068Z,45.08
2023-04-26T14:36:40.139Z,44.90
2023-04-26T14:38:12.050Z,44.96
2023-04-26T14:39:43.845Z,44.91
2023-04-26T14:41:17.073Z,44.93
2023-04-26T14:42:49.122Z,45.01
2023-04-26T14:44:22.632Z,45.08
2023-04-26T14:45:55.576Z,45.11
2023-04-26T14:47:27.943Z,45.14
2023-04-26T14:48:59.891Z,45.17
2023-04-26T14:50:31.444Z,45.00
2023-04-26T14:52:04.420Z,45.00
2023-04-26T14:53:36.065Z,45.19
2023-04-26T14:55:07.913Z,45.05
2023-04-26T14:56:39.696Z,45.13
2023-04-26T14:58:11.461Z,45.48
2023-04-26T14:59:43.379Z,45.38
2023-04-26T15:01:15.763Z,45.24
2023-04-26T15:02:47.774Z,45.24
2023-04-26T15:04:19.956Z,45.23
2023-04-26T15:05:52.009Z,45.26
2023-04-26T15:07:31.928Z,45.07
2023-04-26T15:09:04.694Z,45.21
2023-04-26T15:10:36.504Z,45.32
2023-04-26T15:12:08.007Z,45.25
2023-04-26T15:13:39.810Z,45.21
2023-04-26T15:15:11.644Z,45.42
2023-04-26T15:16:43.385Z,45.41
2023-04-26T15:18:15.386Z,45.42
2023-04-26T15:19:47.482Z,45.45
2023-04-26T15:21:19.315Z,45.69
2023-04-26T15:22:51.099Z,45.53
2023-04-26T15:24:23.206Z,45.52
2023-04-26T15:25:55.544Z,45.21
2023-04-26T15:27:27.051Z,45.71
2023-04-26T15:28:58.570Z,45.61
2023-04-26T15:30:30.744Z,45.68
2023-04-26T15:32:03.402Z,45.57
2023-04-26T15:33:35.223Z,45.38
2023-04-26T15:35:08.341Z,45.55
2023-04-26T15:36:40.741Z,45.57
2023-04-26T15:38:12.445Z,45.46
2023-04-26T15:39:43.997Z,45.62
2023-04-26T15:41:16.070Z,45.76
2023-04-26T15:42:49.327Z,45.67
2023-04-26T15:44:21.207Z,45.73
2023-04-26T15:45:53.552Z,45.69
2023-04-26T15:47:25.353Z,45.70
2023-04-26T15:48:57.174Z,45.82
2023-04-26T15:50:29.227Z,45.74
2023-04-26T15:52:01.366Z,46.05
2023-04-26T15:53:32.946Z,45.96
2023-04-26T15:55:05.425Z,45.84
2023-04-26T15:56:37.113Z,45.78
2023-04-26T15:58:09.198Z,45.97
2023-04-26T15:59:40.979Z,45.99
2023-04-26T16:01:12.766Z,45.98
2023-04-26T16:02:45.289Z,45.88
2023-04-26T16:04:17.560Z,45.75
2023-04-26T16:05:49.257Z,46.16
2023-04-26T16:07:20.970Z,46.03
2023-04-26T16:08:52.552Z,45.70
2023-04-26T16:10:24.247Z,46.02
2023-04-26T16:11:56.124Z,45.95
2023-04-26T16:13:28.299Z,46.33
2023-04-26T16:15:00.335Z,46.25
2023-04-26T16:16:32.248Z,46.45
2023-04-26T16:18:04.492Z,46.68
2023-04-26T16:19:36.008Z,46.17
2023-04-26T16:21:09.882Z,46.43
2023-04-26T16:22:42.315Z,45.96
2023-04-26T16:24:15.531Z,46.50
2023-04-26T16:25:47.080Z,46.56
2023-04-26T16:27:21.056Z,46.63
2023-04-26T16:28:52.589Z,46.42
2023-04-26T16:30:24.195Z,46.73
2023-04-26T16:31:56.321Z,46.53
2023-04-26T16:33:28.609Z,46.73
2023-04-26T16:35:01.068Z,46.62
2023-04-26T16:36:33.098Z,46.81
2023-04-26T16:38:04.909Z,46.02
2023-04-26T16:39:36.670Z,45.83
2023-04-26T16:41:08.494Z,46.04
2023-04-26T16:42:44.454Z,46.40
2023-04-26T16:44:17.037Z,46.34
2023-04-26T16:45:48.630Z,46.41
2023-04-26T16:47:20.517Z,46.13
2023-04-26T16:48:52.037Z,46.65
2023-04-26T16:50:23.668Z,46.00
2023-04-26T16:51:59.040Z,46.28
2023-04-26T16:53:31.217Z,46.23
2023-04-26T16:55:03.091Z,46.50
2023-04-26T16:56:35.010Z,46.74
2023-04-26T16:58:06.927Z,46.54
2023-04-26T16:59:38.856Z,46.46
2023-04-26T17:01:11.325Z,46.61
2023-04-26T17:02:42.955Z,46.80
2023-04-26T17:04:15.012Z,46.88
2023-04-26T17:05:49.977Z,46.60
2023-04-26T17:07:22.618Z,46.79
2023-04-26T17:08:54.199Z,46.33
2023-04-26T17:10:26.164Z,47.00
2023-04-26T17:11:57.904Z,46.41
2023-04-26T17:13:30.916Z,46.38
2023-04-26T17:15:08.334Z,46.26
2023-04-26T17:16:40.685Z,46.46
2023-04-26T17:18:12.358Z,46.48
2023-04-26T17:19:43.950Z,46.42
2023-04-26T17:21:15.875Z,47.31
2023-04-26T17:22:47.500Z,46.61
2023-04-26T17:24:19.738Z,47.01
2023-04-26T17:25:53.261Z,47.40
2023-04-26T17:27:27.139Z,47.08
2023-04-26T17:28:58.817Z,46.64
2023-04-26T17:30:30.675Z,46.77
2023-04-26T17:32:02.363Z,46.64
2023-04-26T17:33:34.069Z,46.92
2023-04-26T17:35:06.642Z,46.74
2023-04-26T17:36:38.140Z,46.48
2023-04-26T17:38:10.176Z,46.50
2023-04-26T17:39:41.940Z,46.55
2023-04-26T17:41:14.020Z,47.35
2023-04-26T17:42:46.224Z,46.90
2023-04-26T17:44:18.260Z,47.42
2023-04-26T17:45:50.330Z,47.12
2023-04-26T17:47:22.000Z,47.87
2023-04-26T17:48:53.994Z,47.68
2023-04-26T17:50:25.937Z,47.31
2023-04-26T17:51:57.515Z,47.11
2023-04-26T17:53:29.176Z,47.24
2023-04-26T17:55:02.549Z,47.73
2023-04-26T17:56:34.078Z,47.64
2023-04-26T17:58:05.799Z,47.98
2023-04-26T17:59:37.796Z,47.79
2023-04-26T18:01:09.438Z,47.94
2023-04-26T18:02:41.278Z,47.58
2023-04-26T18:04:13.021Z,47.86
2023-04-26T18:05:45.111Z,47.49
2023-04-26T18:07:17.040Z,48.00
2023-04-26T18:08:48.739Z,47.95
2023-04-26T18:10:20.276Z,47.96
2023-04-26T18:11:52.127Z,47.93
2023-04-26T18:13:23.725Z,47.97
2023-04-26T18:14:55.190Z,47.60
2023-04-26T18:16:26.950Z,46.98
2023-04-26T18:17:58.630Z,47.70
2023-04-26T18:19:30.974Z,47.72
2023-04-26T18:21:02.605Z,47.28
2023-04-26T18:22:34.076Z,47.29
2023-04-26T18:24:05.741Z,47.45
2023-04-26T18:25:37.467Z,47.58
2023-04-26T18:27:11.782Z,47.87
2023-04-26T18:28:44.968Z,47.70
2023-04-26T18:30:18.218Z,47.27
2023-04-26T18:31:52.618Z,47.64
2023-04-26T18:33:24.648Z,47.98
2023-04-26T18:34:56.393Z,48.08
2023-04-26T18:36:30.070Z,47.99
2023-04-26T18:38:02.250Z,47.94
2023-04-26T18:39:33.977Z,48.35
2023-04-26T18:41:05.661Z,48.00
2023-04-26T18:42:38.871Z,47.39
2023-04-26T18:44:13.401Z,48.22
2023-04-26T18:45:44.967Z,47.29
2023-04-26T18:47:16.577Z,47.86
2023-04-26T18:48:48.338Z,48.12
2023-04-26T18:50:20.081Z,47.61
2023-04-26T18:51:51.696Z,48.12
2023-04-26T18:53:23.740Z,48.17
2023-04-26T18:54:55.330Z,47.36
2023-04-26T18:56:27.480Z,48.34
2023-04-26T18:57:58.995Z,47.84
2023-04-26T18:59:30.602Z,48.13
2023-04-26T19:01:02.346Z,48.27
2023-04-26T19:02:36.510Z,47.67
2023-04-26T19:04:09.145Z,48.57
2023-04-26T19:05:41.436Z,48.16
2023-04-26T19:07:14.380Z,48.01
2023-04-26T19:08:45.898Z,48.59
2023-04-26T19:10:17.494Z,48.78
2023-04-26T19:11:49.199Z,48.56
2023-04-26T19:13:20.945Z,48.69
2023-04-26T19:14:52.656Z,49.21
2023-04-26T19:16:24.322Z,47.94
2023-04-26T19:17:56.589Z,48.84
2023-04-26T19:19:28.321Z,48.76
2023-04-26T19:21:06.376Z,47.95
2023-04-26T19:22:38.567Z,47.83
2023-04-26T19:24:10.112Z,48.02
2023-04-26T19:25:41.896Z,48.19
2023-04-26T19:27:13.949Z,48.92
2023-04-26T19:28:45.841Z,48.85
2023-04-26T19:30:17.758Z,48.65
2023-04-26T19:31:49.719Z,49.09
2023-04-26T19:33:21.453Z,49.06
2023-04-26T19:34:53.027Z,48.83
2023-04-26T19:36:25.788Z,48.53
2023-04-26T19:37:57.744Z,49.19
2023-04-26T19:39:29.439Z,48.35
2023-04-26T19:41:01.256Z,49.12
2023-04-26T19:42:33.383Z,48.97
2023-04-26T19:44:05.523Z,48.62
2023-04-26T19:45:39.451Z,49.19
2023-04-26T19:47:11.340Z,49.50
2023-04-26T19:48:43.377Z,49.53
2023-04-26T19:50:15.001Z,49.29
2023-04-26T19:51:46.548Z,49.59
2023-04-26T19:53:18.333Z,49.55